Pagrindinis puslapis
METAR-TAF:

METAR-TAF

Oro uostai :

Stokholmas, Švedija

platuma: 59-21N, ilguma: 017-57E, Aukštis: 14 m

Dabartinis oras

Ataskaita buvo paskelbta 36 minutes, ne 13:20 UTC
Vėjas 7 kt iš Pietų/Pietvakarių
Temperatūra 4°C
Drėgmė 93%
Slėgis 1000 hPa
Matomumas 10 km arba daugiau
Su prošvaistėmis ne aukštis 1100 ft

METAR: ESSB 161320Z 21007KT 9999 BKN011 04/03 Q1000 R12/29//64

Laikas: 14:56 (13:56 UTC)

Prognozė

Ataskaita buvo paskelbta 26 minutes, ne 13:30 UTC
Prognozė galioja nuo 16 metu 13 UTC su 16 metu 21 UTC
Vėjas 8 kt iš Pietvakarių
Matomumas 10 km arba daugiau
Išsisklaidę debesys ne aukštis 1000 ft
Su prošvaistėmis ne aukštis 1500 ft
Laikinai
nuo 16 metu 13 UTC su 16 metu 21 UTC
Matomumas: 4000 m
Su prošvaistėmis ne aukštis 900 ft
lietus

TAF: ESSB 161330Z 1613/1621 22008KT 9999 SCT010 BKN015 TEMPO 1613/1621 4000 RA BKN009

Orai ataskaitas ir orų prognozės (METAR, TAF).

turimą stotys yra geltonos ir raudonos taškus žemėlapyje.

Perkelti pele per norėdami pamatyti stoties vardą.

Tada spustelėkite, norėdami matyti oro stebėjimo ir prognozės.

Norėdami pakeisti žemėlapį: spustelėkite ant žalios mygtukų su juodo kryžiaus žemyn,; žalią mygtuką su brūkšneliu, jei norite nutolinti; arba žalių rodyklių gretimoms žemėlapius.


METAR-TAF: